Weather observations for the past three days for
Wayne, Wayne Municipal Airport
Metric (Imperial)
Date Time (cdt) Wind (kph) Vis. (km) Weather Sky Cond. Temperature (ºC) Relative Humidity Wind Chill (°C) Heat Index (°C) Pressure Precipitation (cm)
Air Dwpt 6 hour altimeter (cm) sea level (mb) 1 hr 3 hr 6 hr
Max. Min.
03 13:35 N 22 G 30 16.09 Partly Cloudy SCT075 21.4 4.2 33% 75.87 0.0
03 13:15 N 15 16.09 Partly Cloudy SCT075 20.8 4.6 35% 75.9 0.0
03 12:55 NW 15 G 28 16.09 Fair CLR 20.8 5 21 11.7 36% 75.92 0.0
03 12:35 N 9 16.09 Fair CLR 19.6 5.3 39% 75.95 0.0
03 12:15 NW 17 16.09 Fair CLR 20.1 4.5 36% 75.97 0.0
03 11:55 N 19 16.09 Fair CLR 19.6 4.1 36% 75.97 0.0
03 11:35 N 15 16.09 Fair CLR 19 4.8 39% 75.97 0.0
03 11:15 NW 11 16.09 Fair CLR 18.5 4.6 40% 75.97 0.0
03 10:55 N 15 16.09 Fair CLR 18.3 5.2 42% 75.97 0.0
03 10:35 N 15 G 26 16.09 Fair CLR 17 4.9 45% 75.95 0.0
03 10:15 N 15 16.09 Fair CLR 15.6 4.8 49% 75.92 0.0
03 09:55 N 20 16.09 Fair CLR 15.7 4.7 48% 75.95 0.0
03 09:35 N 15 16.09 Fair CLR 15.8 4.4 47% 75.95 0.0
03 09:15 N 20 16.09 Fair CLR 14.9 4.1 49% 75.95 0.0
03 08:55 N 19 16.09 Fair CLR 14.6 3.7 48% 75.9 0.0
03 08:35 N 19 16.09 Fair CLR 14.3 3.9 50% 75.92 0.0
03 08:15 NW 20 16.09 Fair CLR 14.1 3.7 50% 75.9 0.0
03 07:55 NW 17 G 26 16.09 Fair CLR 14.4 4.4 51% 75.84 0.0
03 07:35 N 20 G 28 16.09 Fair CLR 12.9 3.9 55% 75.87 0.0
03 07:15 NW 15 16.09 Fair CLR 11.9 3.4 56% 75.84 0.0
03 06:55 NW 19 16.09 Fair CLR 11.6 3.2 14.8 9.4 57% 75.82 0.0
03 06:35 NW 15 16.09 Fair CLR 11.1 3 58% 75.82 0.0
03 06:15 NW 13 16.09 Fair CLR 10.7 2.5 57% 75.79 0.0
03 05:35 NW 13 16.09 Fair CLR 9.5 2 60% 8 75.77 0.0
03 05:15 W 9 16.09 Fair CLR 9.5 1.9 59% 8 75.74 0.0
03 04:55 W 9 16.09 Fair CLR 10.5 1.7 55% 75.74 0.0
03 04:35 W 19 16.09 Fair CLR 12 1.7 50% 75.72 0.0
03 04:15 W 20 16.09 Fair CLR 12.8 1.7 47% 75.72 0.0
03 03:55 W 20 G 37 16.09 Fair CLR 13.4 1.7 45% 75.72 0.0
03 03:35 W 20 G 30 16.09 Fair CLR 13.1 1.9 47% 75.72 0.0
03 03:15 SW 17 16.09 Fair CLR 13.4 2 46% 75.72 0.0
03 02:55 W 22 16.09 Fair CLR 13.7 1.7 44% 75.77 0.0
03 02:35 W 17 16.09 Fair CLR 13.6 1.5 44% 75.72 0.0
03 02:15 SW 24 G 31 16.09 Fair CLR 14.2 1.1 41% 75.69 0.0
03 01:55 SW 24 G 30 16.09 Fair CLR 13.7 1 42% 75.69 0.0
03 01:35 SW 22 16.09 Fair CLR 13.7 0.5 41% 75.72 0.0
03 01:15 SW 20 16.09 Fair CLR 14 0.2 39% 75.72 0.0
03 00:55 SW 31 G 41 16.09 Partly Cloudy SCT120 14.5 0 19.5 11.1 37% 75.72 0.0
03 00:35 SW 22 16.09 Fair CLR 13 0 41% 75.74 0.0
03 00:15 SW 20 16.09 Fair CLR 13.4 0 40% 75.74 0.0
02 23:55 SW 24 16.09 Fair CLR 13.8 0 39% 75.74 0.0
02 23:35 S 19 G 28 16.09 Fair CLR 11.6 0 45% 75.77 0.0
02 23:15 S 11 16.09 Fair CLR 11.5 0.1 46% 75.79 0.0
02 22:55 S 19 16.09 Fair CLR 12.5 0 43% 75.79 0.0
02 22:35 S 19 16.09 Fair CLR 12.2 0 43% 75.82 0.0
02 22:15 S 20 16.09 Fair CLR 12.7 -0.3 41% 75.82 0.0
02 21:55 S 20 16.09 Fair CLR 12.7 -0.5 40% 75.84 0.0
02 21:35 S 19 16.09 Fair CLR 12.9 -0.6 40% 75.84 0.0
02 21:15 S 17 16.09 Fair CLR 12.3 -0.5 42% 75.84 0.0
02 20:55 S 15 16.09 Fair CLR 13.1 -0.6 39% 75.87 0.0
02 20:35 S 17 16.09 Fair CLR 14.1 -0.7 36% 75.9 0.0
02 20:15 S 15 16.09 Fair CLR 16.3 -1 31% 75.92 0.0
02 19:55 S 15 16.09 Fair CLR 18 -1 28% 75.92 0.0
02 19:35 SW 13 G 19 16.09 Fair CLR 18.7 -1.3 26% 75.97 0.0
02 19:15 SW 19 G 26 16.09 Fair CLR 19.3 -2.1 24% 75.97 0.0
02 18:55 SW 15 16.09 Fair CLR 19.8 -1.9 20.3 17 23% 76 0.0
02 18:35 W 22 16.09 Fair CLR 19.9 -2.6 22% 76.02 0.0
02 18:15 SW 22 16.09 Fair CLR 20.3 -3.1 21% 76.02 0.0
02 17:55 SW 19 G 35 16.09 Fair CLR 20.1 -2.7 21% 76.05 0.0
02 17:35 W 20 G 31 16.09 Fair CLR 20.3 -1.8 23% 76.07 0.0
02 17:15 W 26 G 43 16.09 Fair CLR 20.3 -1.6 23% 76.1 0.0
02 16:55 SW 26 G 33 16.09 Fair CLR 20 -0.9 25% 76.12 0.0
02 16:35 SW 7 G 19 16.09 Fair CLR 19.5 -1.5 24% 76.15 0.0
02 16:15 SW 19 G 31 16.09 Fair CLR 19.5 -1.1 25% 76.2 0.0
02 15:55 W 19 16.09 Fair CLR 19.4 -0.2 27% 76.23 0.0
02 15:35 SW 20 G 30 16.09 Fair CLR 19.5 -0.1 27% 76.25 0.0
02 14:55 SW 13 G 26 16.09 Fair CLR 19 1.1 30% 76.3 0.0
02 14:35 SW 11 16.09 Fair CLR 18.7 -0.6 27% 76.33 0.0
02 14:15 W 7 16.09 Fair CLR 18.2 -0.5 28% 76.33 0.0
02 13:55 W 7 16.09 Fair CLR 18.3 0.2 30% 76.38 0.0
02 13:35 NW 13 16.09 Fair CLR 17.6 -1.3 28% 76.4 0.0
02 13:15 W 7 16.09 Fair CLR 17.6 0.4 31% 76.4 0.0
02 12:55 W 6 16.09 Fair CLR 16.8 -0.4 17 -2.8 31% 76.43 0.0
02 12:35 SW 9 16.09 Fair CLR 16.7 0.2 33% 76.45 0.0
02 12:15 W 15 16.09 Fair CLR 16.4 0.1 33% 76.5 0.0
02 11:55 W 15 16.09 Fair CLR 16.3 0 33% 76.5 0.0
02 11:35 W 17 16.09 Fair CLR 15.9 0.2 35% 76.5 0.0
02 11:15 NW 20 G 28 16.09 Fair CLR 15.3 0.2 36% 76.53 0.0
02 10:55 W 17 16.09 Fair CLR 14.7 -0.6 35% 76.53 0.0
02 10:35 W 15 16.09 Fair CLR 14.3 -0.9 35% 76.56 0.0
02 10:15 W 15 16.09 Fair CLR 13.7 -1.2 36% 76.56 0.0
02 09:55 W 19 16.09 Fair CLR 12.6 -2.6 35% 76.58 0.0
02 09:35 W 13 16.09 Fair CLR 12.1 -1.1 40% 76.58 0.0
02 09:15 W 17 16.09 Fair CLR 10.7 -1 45% 76.61 0.0
02 08:55 SW 11 16.09 Fair CLR 8.3 0.8 60% 7 76.61 0.0
02 08:35 SW 6 16.09 Fair CLR 5.9 0.2 67% 76.61 0.0
02 08:15 SW 6 16.09 Fair CLR 3.6 -0.6 74% 76.61 0.0
02 07:55 S 6 16.09 Fair CLR 1.3 -1.6 81% 76.61 0.0
02 07:35 S 6 16.09 Fair CLR -0.4 -2.8 84% 76.61 0.0
02 07:15 S 6 16.09 Fair CLR -2 -4 86% 76.61 0.0
02 06:55 S 6 16.09 Fair CLR -2.7 -5 0 -4 84% 76.61 0.0
02 06:35 S 6 16.09 Fair CLR -3.6 -5.5 87% 76.61 0.0
02 06:15 SW 6 16.09 Fair CLR -3.6 -5.5 87% 76.58 0.0
02 05:55 S 7 16.09 Fair CLR -3.5 -5.5 86% -6 76.61 0.0
02 05:35 SW 7 16.09 Fair CLR -3.2 -5.3 86% -6 76.61 0.0
02 05:15 SW 6 16.09 Fair CLR -3.8 -5.5 88% 76.61 0.0
02 04:55 Calm 16.09 Fair CLR -3.5 -5.3 88% 76.61 0.0
02 04:35 SW 6 16.09 Fair CLR -3.7 -5.6 87% 76.61 0.0
02 04:15 SW 6 16.09 Fair CLR -3.1 -5.2 86% 76.61 0.0
02 03:55 Calm 16.09 Fair CLR -3.1 -5.1 86% 76.61 0.0
02 03:35 Calm 16.09 Fair CLR -3 -5.1 86% 76.61 0.0
02 03:15 Calm 16.09 Fair CLR -2.6 -5 84% 76.61 0.0
02 02:55 Calm 16.09 Fair CLR -2.5 -4.7 85% 76.61 0.0
02 02:15 Calm 16.09 Fair CLR -1.7 -4.6 81% 76.61 0.0
02 01:55 Calm 16.09 Fair CLR -2 -4.7 82% 76.61 0.0
02 01:35 Calm 16.09 Fair CLR -1.2 -4.5 79% 76.61 0.0
02 01:15 Calm 16.09 Fair CLR 0 -4.5 72% 76.61 0.0
02 00:55 Calm 16.09 Fair CLR -0.1 -4.6 12.2 -0.4 72% 76.61 0.0
02 00:35 Calm 16.09 Fair CLR -0.1 -4.6 72% 76.58 0.0
02 00:15 Calm 16.09 Fair CLR 0.7 -3.6 73% 76.58 0.0
01 23:55 Calm 16.09 Fair CLR 0.2 -4.1 73% 76.58 0.0
01 23:35 Calm 16.09 Fair CLR 0.2 -3 79% 76.58 0.0
01 23:15 Calm 16.09 Fair CLR 1.5 -4 67% 76.58 0.0
01 22:55 Calm 16.09 Fair CLR 2.1 -3.9 65% 76.58 0.0
01 22:35 Calm 16.09 Fair CLR 1.6 -4 67% 76.58 0.0
01 22:15 Calm 16.09 Fair CLR 2 -4.4 63% 76.56 0.0
01 21:55 Calm 16.09 Fair CLR 2.4 -4.1 63% 76.56 0.0
01 21:35 Calm 16.09 Fair CLR 4.7 -4 54% 76.56 0.0
01 21:15 Calm 16.09 Fair CLR 5 -3.3 55% 76.53 0.0
01 20:55 N 9 16.09 Fair CLR 6.9 -4 46% 5 76.5 0.0
01 20:35 N 9 16.09 Fair CLR 8.5 -4.2 41% 7 76.5 0.0
01 20:15 N 9 16.09 Fair CLR 8.9 -3.3 42% 8 76.48 0.0
01 19:55 N 17 G 26 16.09 Fair CLR 10.8 -4.3 35% 76.45 0.0
01 19:35 N 20 16.09 Partly Cloudy SCT070 11.5 -4 34% 76.45 0.0
01 19:15 N 19 16.09 Mostly Cloudy BKN070 12.1 -3.8 33% 76.45 0.0
01 18:55 N 19 G 26 16.09 Partly Cloudy SCT070 12.2 -3.6 13.3 10.4 33% 76.45 0.0
01 18:35 N 20 G 28 16.09 Partly Cloudy SCT070 12.6 -3.2 33% 76.43 0.0
01 18:15 NW 17 16.09 Fair CLR 12.6 -3.6 32% 76.43 0.0
01 17:55 N 17 G 39 16.09 Partly Cloudy SCT065 12.3 -3.6 33% 76.45 0.0
01 17:35 NW 20 G 26 16.09 Partly Cloudy SCT065 12.9 -3.3 33% 76.43 0.0
01 17:15 NW 17 G 30 16.09 Partly Cloudy SCT065 12.5 -3.4 33% 76.43 0.0
01 16:55 N 22 G 37 16.09 Partly Cloudy SCT065 12.9 -3.5 32% 76.43 0.0
01 16:35 N 22 G 31 16.09 Partly Cloudy SCT065 13 -3 33% 76.45 0.0
01 16:15 N 22 16.09 Partly Cloudy SCT065 12.7 -2.9 34% 76.45 0.0
01 15:55 N 20 G 33 16.09 Partly Cloudy SCT065 12.4 -2.9 35% 76.45 0.0
01 15:35 N 19 G 41 16.09 Fair CLR 13 -1.9 36% 76.5 0.0
01 15:15 N 24 G 31 16.09 Partly Cloudy SCT060 12.5 -2.2 36% 76.5 0.0
01 14:55 N 20 G 39 16.09 Partly Cloudy SCT060 11.7 -2.8 37% 76.5 0.0
01 14:35 N 20 G 35 16.09 Partly Cloudy SCT060 12.2 -2.4 36% 76.5 0.0
01 14:15 N 24 G 37 16.09 Partly Cloudy SCT060 12.2 -2.4 36% 76.5 0.0
01 13:55 N 15 G 35 16.09 Partly Cloudy SCT060 11.7 -2.6 37% 76.5 0.0
01 13:35 N 20 G 30 16.09 Partly Cloudy SCT060 11.4 -2.2 39% 76.5 0.0
01 13:15 N 24 G 35 16.09 Partly Cloudy SCT060 10.5 -3.2 38% 76.5 0.0
01 12:55 N 20 G 39 16.09 Partly Cloudy SCT060 11.3 -1.9 11.3 1.6 40% 76.5 0.0
01 12:35 N 19 G 31 16.09 Partly Cloudy SCT060 11.1 -1.7 41% 76.53 0.0
01 12:15 N 24 G 37 16.09 Partly Cloudy SCT050 10.7 -2.5 40% 76.53 0.0
01 11:55 N 22 G 37 16.09 Partly Cloudy SCT050 10.9 -0.9 44% 76.53 0.0
01 11:35 N 22 G 41 16.09 Partly Cloudy SCT048 10 -2.3 42% 7 76.53 0.0
01 11:15 N 30 G 39 16.09 Fair CLR 9.9 -1.6 45% 7 76.53 0.0
01 10:55 N 28 G 37 16.09 Partly Cloudy SCT042 9.8 -1.2 47% 7 76.5 0.0
01 10:35 N 30 G 39 16.09 Partly Cloudy SCT032 SCT040 9.4 -0.3 51% 6 76.5 0.0
01 10:15 N 22 G 35 16.09 Fair CLR 8.8 1.5 61% 6 76.5 0.0
01 09:55 N 28 16.09 Fair CLR 8.1 2.1 66% 5 76.5 0.0
01 09:35 N 20 16.09 Fair CLR 7.3 2.3 71% 4 76.5 0.0
01 09:15 N 20 16.09 Fair CLR 6.3 1.9 74% 3 76.5 0.0
01 08:55 N 17 G 31 16.09 Fair CLR 5.7 2 77% 3 76.5 0.0
01 08:35 N 19 16.09 Fair CLR 5.4 2.5 82% 2 76.48 0.0
01 08:15 N 19 16.09 Fair CLR 4.6 2.2 85% 1 76.45 0.0
01 07:55 N 22 G 30 16.09 Fair CLR 4 2 87% -0 76.45 0.0
01 07:35 NW 17 16.09 Fair CLR 3.2 1.8 91% -0 76.45 0.0
01 07:15 NW 17 16.09 Fair CLR 2.1 0.9 92% -2 76.43 0.0
01 06:55 NW 15 16.09 Fair CLR 1.4 0.4 2.1 -0.3 93% -2 76.4 0.0
01 06:35 NW 11 16.09 Fair CLR 1 0 93% -2 76.4 0.0
01 06:15 NW 15 16.09 Fair CLR 1.3 0 91% -2 76.38 0.0
01 05:55 NW 15 16.09 Fair CLR 1.3 -0.2 90% -2 76.38 0.0
01 05:35 NW 17 16.09 Fair CLR 1.3 -0.5 88% -3 76.38 0.0
01 05:15 NW 15 16.09 Fair CLR 1.8 -0.8 83% -2 76.38 0.0
01 04:55 NW 13 16.09 Fair CLR 1.2 -1.1 85% -2 76.38 0.0
01 04:35 NW 11 16.09 Fair CLR 2 -1.2 80% -1 76.35 0.0
01 04:15 Calm 16.09 Fair CLR 0.4 -2 84% 76.35 0.0
01 03:55 Calm 16.09 Fair CLR 0 -2.3 85% 76.35 0.0
01 03:35 Calm 16.09 Fair CLR 0.7 -2.1 82% 76.35 0.0
01 03:15 Calm 16.09 Fair CLR 0.7 -2.2 81% 76.35 0.0
01 02:55 Calm 16.09 Fair CLR 0.3 -2 85% 76.35 0.0
01 02:35 Calm 16.09 Fair CLR 0 -2.1 86% 76.35 0.0
01 02:15 SW 6 16.09 Fair CLR 0.1 -2 86% 76.35 0.0
01 01:55 S 6 16.09 Fair CLR 0.6 -2 83% 76.35 0.0
01 01:35 SW 11 16.09 Fair CLR 0.9 -2 81% -2 76.38 0.0
01 01:15 S 6 16.09 Fair CLR 1.5 -2 78% 76.38 0.0
01 00:55 SW 6 16.09 Fair CLR 1 -1.1 11.6 1 86% 76.4 0.0
01 00:35 Calm 16.09 Fair CLR 2 -1.3 79% 76.38 0.0
30 23:55 S 6 16.09 Fair CLR 3.8 -1 71% 76.38 0.0
30 23:35 Calm 16.09 Partly Cloudy SCT075 4.4 -0.4 71% 76.4 0.0
30 23:15 SW 9 11.27 Mostly Cloudy BKN075 BKN085 6.8 -0.2 61% 5 76.4 0.0
30 22:55 Calm 16.09 Overcast BKN075 OVC085 7.1 0.4 63% 76.4 0.0
30 22:35 SW 6 16.09 Overcast OVC075 6.4 1 69% 76.4 0.0
30 22:15 Calm 16.09 Overcast BKN075 OVC085 6.6 -0.6 60% 76.4 0.0
30 21:55 S 7 16.09 Overcast SCT055 BKN080 OVC095 6 0.1 66% 5 76.4 0.0
30 21:35 S 9 16.09 Overcast SCT080 OVC095 4.5 0.1 73% 3 76.4 0.0
30 20:55 Calm 16.09 Fair CLR 5.4 -1.6 61% 76.38 0.0
30 20:35 Calm 16.09 Fair CLR 6.4 -1.8 56% 76.38 0.0
30 19:55 N 6 16.09 Fair CLR 10.1 -2.8 41% 76.38 0.0
30 19:35 N 6 16.09 Fair CLR 10.6 -1.4 44% 76.38 0.0
30 19:15 N 9 16.09 Fair CLR 11.6 -1.9 39% 76.38 0.0
30 18:55 N 9 16.09 Fair CLR 11.4 -2.6 13.2 10.5 38% 76.4 0.0
30 18:35 NW 11 16.09 Fair CLR 12 -2.9 36% 76.4 0.0
30 18:15 N 15 16.09 Fair CLR 11.3 -3.2 36% 76.4 0.0
30 17:55 N 20 G 28 16.09 Partly Cloudy SCT070 12.6 -2.9 34% 76.4 0.0
30 17:35 N 11 G 19 16.09 Mostly Cloudy BKN070 12.8 -2.5 35% 76.4 0.0
30 17:15 N 20 G 31 16.09 Mostly Cloudy BKN070 BKN080 13.1 -2.3 35% 76.43 0.0
30 16:55 N 20 G 26 16.09 Mostly Cloudy BKN065 BKN080 12.6 -2.1 36% 76.43 0.0
30 16:35 N 22 G 35 16.09 Partly Cloudy SCT065 SCT080 12.4 -1.6 38% 76.43 0.0
30 16:15 N 19 G 28 16.09 Mostly Cloudy BKN080 11.6 -1.7 40% 76.45 0.0
30 15:55 N 20 G 31 16.09 Overcast OVC080 11.2 -1.9 40% 76.45 0.0
30 15:35 NW 22 G 30 16.09 Overcast SCT060 OVC080 11.8 -1 41% 76.45 0.0
30 15:15 N 24 G 37 16.09 Overcast SCT060 OVC070 12.6 -0.6 40% 76.48 0.0
30 14:55 NW 28 G 33 16.09 Overcast BKN060 BKN070 OVC080 10.9 -1.3 43% 76.48 0.0
30 14:35 N 26 G 37 16.09 Overcast BKN060 OVC070 10.9 -0.6 45% 76.5 0.0
30 14:15 NW 22 G 41 16.09 Overcast BKN050 OVC070 11.6 -0.1 45% 76.48 0.0
Date Time (cdt) Wind (kph) Vis. (km) Weather Sky Cond. Air Dwpt Max. Min. Relative Humidity Wind Chill (°C) Heat Index (°C) altimeter (cm) sea level (mb) 1 hr 3 hr 6 hr
6 hour
Temperature (ºC) Pressure Precipitation (cm)